Latest Weather Observations for Walgett

IDN60801

Issued at 8:33 am EDT Saturday 14 December 2019 (issued every 10 minutes, with the page automatically refreshed every 10 minutes)

About weather observations | Map of weather stations | Latest weather observations for NSW | Other Formats
Station Details ID: 052088 Name: WALGETT AIRPORT AWS Lat: -30.04 Lon: 148.12 Height: 133.0 m
Data from the previous 72 hours. | See also: Recent months at Walgett
Date/Time
EDT
Temp
°C
App
Temp
°C
Dew
Point
°C
Rel
Hum
%
Delta-T
°C
Wind Press
QNH
hPa
Press
MSL
hPa
Rain since
9am
mm
Dir  Spd
km/h
Gust
km/h
Spd
kts
Gust
kts
14/08:30am 25.1 17.8 -0.1 19 11.7 S 28 33 15 18 1012.5 1011.7 0.0
14/08:00am 23.2 17.2 -1.7 19 11.0 SSW 20 28 11 15 1012.4 1011.6 0.0
14/07:30am 21.0 15.6 -4.2 18 10.4 SSW 15 20 8 11 1012.1 1011.3 0.0
14/07:00am 17.6 13.6 -5.6 20 9.0 SW 7 9 4 5 1011.9 1011.1 0.0
14/06:30am 15.9 11.4 -7.0 20 8.4 SW 9 13 5 7 1011.5 1010.7 0.0
14/06:00am 16.0 11.9 -6.3 21 8.4 WSW 7 9 4 5 1011.4 1010.6 0.0
14/05:30am 17.0 12.6 -6.1 20 8.8 WSW 9 11 5 6 1011.3 1010.5 0.0
14/05:00am 16.5 12.5 -5.3 22 8.4 SW 7 9 4 5 1011.2 1010.4 0.0
14/04:30am 16.3 12.3 -6.0 21 8.4 SW 7 9 4 5 1011.0 1010.2 0.0
14/04:00am 16.9 12.5 -6.2 20 8.8 SSW 9 11 5 6 1011.0 1010.2 0.0
14/03:30am 18.2 14.0 -7.2 17 9.6 SSW 7 9 4 5 1011.1 1010.3 0.0
14/03:00am 17.9 13.7 -7.5 17 9.5 SSW 7 13 4 7 1011.1 1010.3 0.0
14/02:30am 19.8 13.7 -7.5 15 10.4 SSW 17 20 9 11 1011.0 1010.2 0.0
14/02:00am 20.3 14.6 -7.1 15 10.6 SSW 15 20 8 11 1011.1 1010.3 0.0
14/01:30am 19.9 14.6 -7.5 15 10.5 SSW 13 17 7 9 1011.3 1010.5 0.0
14/01:00am 20.4 15.0 -8.0 14 10.8 SSW 13 17 7 9 1011.4 1010.6 0.0
14/12:30am 22.1 15.6 -7.6 13 11.6 S 19 22 10 12 1011.5 1010.7 0.0
14/12:00am 22.2 16.5 -7.5 13 11.6 SSW 15 20 8 11 1011.5 1010.7 0.0
 
Date/Time
EDT
Temp
°C
App
Temp
°C
Dew
Point
°C
Rel
Hum
%
Delta-T
°C
Wind Press
QNH
hPa
Press
MSL
hPa
Rain since
9am
mm
Dir  Spd
km/h
Gust
km/h
Spd
kts
Gust
kts
13/11:30pm 22.7 17.0 -7.1 13 11.8 SSW 15 19 8 10 1011.5 1010.7 0.0
13/11:00pm 22.6 16.2 -7.2 13 11.8 S 19 22 10 12 1011.5 1010.7 0.0
13/10:30pm 23.3 17.2 -7.7 12 12.2 S 17 20 9 11 1011.5 1010.7 0.0
13/10:00pm 24.2 17.8 -7.0 12 12.6 S 19 24 10 13 1011.4 1010.6 0.0
13/09:30pm 24.6 18.6 -6.7 12 12.7 S 17 19 9 10 1011.1 1010.3 0.0
13/09:00pm 26.4 20.0 -6.4 11 13.7 SSW 19 20 10 11 1010.8 1010.0 0.0
13/08:30pm 27.9 21.0 -6.5 10 14.5 SSW 22 26 12 14 1010.5 1009.7 0.0
13/08:00pm 29.1 22.1 -7.0 9 15.3 SSW 22 30 12 16 1010.1 1009.3 0.0
13/07:30pm 30.7 23.1 -5.8 9 15.9 SSW 26 35 14 19 1009.9 1009.1 0.0
13/07:00pm 31.5 23.8 -6.7 8 16.6 SSW 26 35 14 19 1009.5 1008.7 0.0
13/06:30pm 32.0 23.8 -8.1 7 17.0 SSW 28 37 15 20 1009.0 1008.3 0.0
13/06:00pm 32.9 25.7 -5.7 8 17.2 SSW 24 35 13 19 1008.9 1008.2 0.0
13/05:30pm 33.2 25.4 -7.2 7 17.6 SW 26 39 14 21 1008.9 1008.2 0.0
13/05:00pm 33.1 25.9 -5.5 8 17.3 SW 24 37 13 20 1009.1 1008.4 0.0
13/04:30pm 32.8 25.2 -5.7 8 17.1 SW 26 35 14 19 1009.5 1008.7 0.0
13/04:00pm 33.2 25.2 -5.5 8 17.4 SSW 28 39 15 21 1009.9 1009.1 0.0
13/03:30pm 33.0 26.2 -5.6 8 17.2 SW 22 35 12 19 1010.0 1009.2 0.0
13/03:00pm 33.0 25.9 -4.0 9 17.0 SW 24 33 13 18 1010.2 1009.4 0.0
13/02:30pm 32.3 25.3 -3.2 10 16.4 SW 24 37 13 20 1010.5 1009.7 0.0
13/02:00pm 32.2 26.3 -0.8 12 15.9 WSW 20 33 11 18 1010.9 1010.1 0.0
13/01:30pm 31.6 24.7 -0.1 13 15.4 SW 26 37 14 20 1011.5 1010.7 0.0
13/01:00pm 31.2 24.9 1.5 15 14.8 SSW 24 46 13 25 1011.8 1011.0 0.0
13/12:56pm 32.3 25.6 1.4 14 15.4 SW 26 46 14 25 1012.0 1011.2 0.0
13/12:30pm 30.7 23.9 1.1 15 14.6 SW 26 43 14 23 1012.2 1011.4 0.0
13/12:00pm 30.2 23.4 3.3 18 13.7 SSW 28 37 15 20 1012.5 1011.7 0.0
13/11:30am 29.2 23.2 3.2 19 13.1 SSW 24 39 13 21 1012.7 1011.9 0.0
13/11:00am 28.0 22.6 6.2 25 11.5 S 24 33 13 18 1013.1 1012.3 0.0
13/10:30am 27.1 20.3 7.0 28 10.7 S 32 43 17 23 1013.1 1012.3 0.0
13/10:00am 26.1 20.0 8.1 32 9.7 S 30 41 16 22 1013.0 1012.2 0.0
13/09:30am 25.6 18.3 7.2 31 9.7 S 35 43 19 23 1013.1 1012.3 0.0
13/09:00am 24.9 18.1 7.1 32 9.4 S 32 41 17 22 1012.9 1012.1 0.0
13/08:30am 24.4 17.7 8.0 35 8.8 S 33 39 18 21 1012.7 1011.9 0.0
13/08:00am 24.3 17.6 7.4 34 8.9 S 32 39 17 21 1012.5 1011.7 0.0
13/07:30am 22.6 17.0 1.0 24 10.0 S 20 24 11 13 1012.2 1011.4 0.0
13/07:00am 21.5 15.5 -1.7 21 10.1 SSW 20 28 11 15 1012.1 1011.3 0.0
13/06:30am 21.6 15.2 -1.6 21 10.1 SSW 22 30 12 16 1012.0 1011.2 0.0
13/06:00am 21.6 15.7 -2.3 20 10.3 SSW 19 26 10 14 1011.9 1011.1 0.0
13/05:30am 21.9 15.1 -2.0 20 10.4 SSW 24 32 13 17 1011.6 1010.8 0.0
13/05:00am 21.8 15.0 -2.1 20 10.4 S 24 30 13 16 1011.4 1010.6 0.0
13/04:30am 22.6 15.0 -2.2 19 10.8 S 28 33 15 18 1011.4 1010.6 0.0
13/04:00am 23.2 16.0 -1.7 19 11.0 S 26 33 14 18 1011.2 1010.4 0.0
13/03:30am 23.4 15.9 -1.5 19 11.1 S 28 33 15 18 1011.1 1010.3 0.0
13/03:00am 23.8 16.7 -1.2 19 11.2 S 26 32 14 17 1011.3 1010.5 0.0
13/02:30am 24.4 16.6 -0.7 19 11.4 S 30 35 16 19 1011.5 1010.7 0.0
13/02:00am 25.4 17.3 -0.6 18 12.0 S 32 37 17 20 1011.5 1010.7 0.0
13/01:30am 25.8 17.7 -0.3 18 12.1 S 32 37 17 20 1011.6 1010.8 0.0
13/01:00am 25.6 18.9 -1.2 17 12.2 S 24 30 13 16 1011.7 1010.9 0.0
13/12:30am 26.0 19.2 -1.7 16 12.5 S 24 30 13 16 1011.8 1011.0 0.0
13/12:00am 26.6 19.4 -2.1 15 13.0 S 26 32 14 17 1012.0 1011.2 0.0
 
Date/Time
EDT
Temp
°C
App
Temp
°C
Dew
Point
°C
Rel
Hum
%
Delta-T
°C
Wind Press
QNH
hPa
Press
MSL
hPa
Rain since
9am
mm
Dir  Spd
km/h
Gust
km/h
Spd
kts
Gust
kts
12/11:30pm 26.9 19.6 -2.8 14 13.3 S 26 32 14 17 1011.9 1011.1 0.0
12/11:00pm 26.4 20.2 -3.2 14 13.1 S 20 24 11 13 1011.8 1011.0 0.0
12/10:30pm 27.8 20.1 -3.1 13 13.8 S 28 33 15 18 1011.4 1010.6 0.0
12/10:00pm 28.3 21.3 -3.8 12 14.3 S 24 30 13 16 1011.2 1010.4 0.0
12/09:30pm 28.7 22.5 -3.5 12 14.4 S 20 24 11 13 1011.1 1010.3 0.0
12/09:00pm 29.8 22.4 -3.8 11 15.1 SSW 26 32 14 17 1010.8 1010.0 0.0
12/08:30pm 30.5 23.1 -3.3 11 15.4 SSW 26 39 14 21 1010.5 1009.7 0.0
12/08:00pm 31.6 24.2 -3.7 10 16.1 SSW 26 35 14 19 1010.1 1009.3 0.0
12/07:30pm 32.5 25.4 -4.4 9 16.7 SSW 24 33 13 18 1009.6 1008.8 0.0
12/07:00pm 33.8 26.3 -5.0 8 17.6 SW 26 35 14 19 1009.1 1008.4 0.0
12/06:30pm 34.7 26.8 -4.4 8 18.0 SW 28 44 15 24 1008.4 1007.7 0.0
12/06:00pm 35.7 27.5 -3.6 8 18.5 SSW 30 41 16 22 1008.2 1007.5 0.0
12/05:30pm 35.0 27.2 -4.1 8 18.2 SSW 28 44 15 24 1007.9 1007.2 0.0
12/05:00pm 35.9 27.2 -5.2 7 18.9 SSW 32 44 17 24 1007.7 1007.0 0.0
12/04:30pm 36.1 28.5 -5.1 7 19.0 SSW 26 44 14 24 1007.8 1007.1 0.0
12/04:00pm 36.4 28.1 -4.9 7 19.2 SSW 30 39 16 21 1008.0 1007.3 0.0
12/03:44pm 36.3 28.6 -3.2 8 18.8 SW 28 46 15 25 1008.2 1007.5 0.0
12/03:30pm 36.3 28.6 -3.2 8 18.8 SSW 28 39 15 21 1008.3 1007.6 0.0
12/03:00pm 36.6 29.5 -4.7 7 19.3 WSW 24 37 13 20 1008.5 1007.8 0.0
12/02:30pm 36.9 30.4 -2.7 8 19.1 SW 22 39 12 21 1008.6 1007.9 0.0
12/02:04pm 35.2 27.6 -2.4 9 18.0 SW 28 46 15 25 1009.0 1008.3 0.0
12/02:00pm 35.6 29.1 -2.1 9 18.2 SW 22 33 12 18 1009.0 1008.3 0.0
12/01:30pm 35.6 29.0 -0.7 10 17.9 SSW 24 43 13 23 1009.6 1008.8 0.0
12/01:00pm 34.8 28.1 -1.3 10 17.6 SW 24 39 13 21 1009.9 1009.1 0.0
12/12:30pm 35.3 28.2 -0.9 10 17.8 SSW 26 41 14 22 1010.1 1009.3 0.0
12/12:00pm 34.8 28.1 1.2 12 17.0 SSW 26 41 14 22 1010.2 1009.4 0.0
12/11:30am 34.2 26.8 1.9 13 16.5 SSW 30 43 16 23 1010.2 1009.4 0.0
12/11:15am 34.2 27.5 3.9 15 15.9 S 28 46 15 25 1010.3 1009.5 0.0
12/11:00am 33.5 26.9 4.2 16 15.5 SSW 28 37 15 20 1010.2 1009.4 0.0
12/10:30am 32.5 26.4 6.7 20 14.1 SSW 28 37 15 20 1010.3 1009.5 0.0
12/10:00am 31.5 24.8 5.8 20 13.8 S 30 39 16 21 1010.3 1009.5 0.0
12/09:30am 30.2 24.1 6.8 23 12.6 S 28 37 15 20 1010.5 1009.7 0.0
12/09:00am 27.6 21.7 4.0 22 12.0 SSW 24 32 13 17 1010.6 1009.8 0.0
12/08:30am 25.4 20.0 1.5 21 11.4 SSW 19 26 10 14 1010.7 1009.9 -
12/08:00am 23.6 18.8 -2.8 17 11.5 S 13 17 7 9 1010.5 1009.7 -
12/07:30am 22.1 17.7 -5.7 15 11.3 SSW 9 11 5 6 1010.6 1009.8 -
12/07:00am 18.9 14.9 -5.2 19 9.6 E 7 9 4 5 1010.5 1009.7 -
12/06:30am 16.3 12.5 -6.0 21 8.4 ENE 6 13 3 7 1010.3 1009.5 -
12/06:00am 16.2 13.5 -6.1 21 8.4 CALM 0 2 0 1 1010.3 1009.5 -
12/05:30am 16.5 12.3 -7.2 19 8.8 SSW 7 11 4 6 1010.1 1009.3 -
12/05:00am 15.1 10.7 -10.5 16 8.7 ENE 7 15 4 8 1010.1 1009.3 -
12/04:30am 18.1 15.4 -5.9 19 9.3 CALM 0 0 0 0 1009.7 1008.9 -
12/04:00am 18.3 14.7 -7.9 16 9.8 E 4 6 2 3 1009.8 1009.0 -
12/03:30am 18.6 14.3 -8.5 15 10.0 E 7 11 4 6 1009.9 1009.1 -
12/03:00am 19.9 15.6 -8.4 14 10.6 SSW 7 9 4 5 1010.1 1009.3 0.0
12/02:30am 20.5 15.1 -8.8 13 11.0 SSW 13 15 7 8 1009.9 1009.1 -
12/02:00am 20.9 16.4 -6.7 15 10.8 SSW 9 11 5 6 1009.9 1009.1 -
12/01:30am 21.9 17.9 -5.9 15 11.2 SW 7 9 4 5 1009.9 1009.1 -
12/01:00am 22.9 19.0 -5.1 15 11.6 SW 7 9 4 5 1009.9 1009.1 -
12/12:30am 24.8 20.4 -5.5 13 12.6 SSW 9 11 5 6 1010.0 1009.2 -
12/12:00am 24.8 19.9 -7.6 11 13.0 SSW 11 13 6 7 1009.9 1009.1 -
 
Date/Time
EDT
Temp
°C
App
Temp
°C
Dew
Point
°C
Rel
Hum
%
Delta-T
°C
Wind Press
QNH
hPa
Press
MSL
hPa
Rain since
9am
mm
Dir  Spd
km/h
Gust
km/h
Spd
kts
Gust
kts
11/11:30pm 24.8 20.8 -5.5 13 12.6 S 7 9 4 5 1009.7 1008.9 -
11/11:00pm 26.9 21.6 -7.2 10 14.1 S 13 15 7 8 1009.7 1008.9 -
11/10:30pm 29.6 23.2 -6.6 9 15.4 S 19 20 10 11 1009.5 1008.7 -
11/10:00pm 30.8 24.3 -5.7 9 16.0 S 20 24 11 13 1009.0 1008.3 -
11/09:30pm 31.9 25.7 -4.9 9 16.5 SSW 19 22 10 12 1008.6 1007.9 -
11/09:00pm 33.8 27.0 -5.0 8 17.6 SSW 22 28 12 15 1008.0 1007.3 0.0
11/08:30pm 35.7 28.9 -5.4 7 18.8 SW 22 30 12 16 1007.6 1006.9 -
11/08:00pm 37.0 31.2 -4.4 7 19.5 SW 17 24 9 13 1006.9 1006.2 -
11/07:30pm 38.7 32.9 -1.4 8 19.9 SSW 19 26 10 14 1006.4 1005.6 -
11/07:00pm 39.5 33.6 -0.8 8 20.4 SW 20 30 11 16 1006.1 1005.3 -
11/06:30pm 40.2 32.9 -0.3 8 20.7 SW 28 37 15 20 1005.7 1004.9 -
11/06:00pm 40.8 33.9 0.1 8 21.0 SW 26 37 14 20 1005.6 1004.8 -
11/05:33pm 41.2 33.6 0.4 8 21.2 SW 30 50 16 27 1005.6 1004.8 -
11/05:30pm 41.1 33.5 0.3 8 21.1 SW 30 52 16 28 1005.6 1004.8 -
11/05:21pm 41.3 33.3 0.5 8 21.2 WSW 32 52 17 28 1005.7 1004.9 -
11/05:00pm 41.4 33.2 -1.3 7 21.7 WSW 32 46 17 25 1005.8 1005.0 -
11/04:34pm 41.8 34.4 -1.0 7 21.8 WSW 28 48 15 26 1006.0 1005.2 -
11/04:30pm 42.0 35.3 -0.9 7 21.9 WSW 24 39 13 21 1006.1 1005.3 -
11/04:00pm 41.8 35.5 -1.0 7 21.9 WSW 22 37 12 20 1006.6 1005.8 -
11/03:50pm 42.2 34.8 -0.7 7 22.0 W 28 43 15 23 1006.7 1005.9 -
11/03:30pm 42.4 37.0 1.3 8 21.7 SW 19 33 10 18 1007.1 1006.4 -
11/03:00pm 40.9 35.1 0.2 8 21.1 W 20 33 11 18 1007.5 1006.8 -
11/02:30pm 41.9 35.9 0.9 8 21.5 SW 22 33 12 18 1008.0 1007.3 -
11/02:00pm 40.9 34.8 0.2 8 21.0 WSW 22 33 12 18 1008.3 1007.6 -
11/01:30pm 40.9 34.4 0.2 8 21.0 SW 24 39 13 21 1008.6 1007.9 -
11/01:00pm 40.5 34.6 1.5 9 20.5 SSW 22 33 12 18 1008.9 1008.2 -
11/12:30pm 39.5 33.5 0.8 9 20.0 SW 22 35 12 19 1009.3 1008.6 -
11/12:00pm - - - - - - - - - - - - -
11/11:30am 37.6 32.3 -0.6 9 19.1 SW 17 28 9 15 1010.0 1009.2 -
11/11:00am 36.6 32.2 0.1 10 18.4 WSW 13 19 7 10 1009.9 1009.1 -
11/10:30am 35.5 31.5 0.6 11 17.6 WSW 11 17 6 9 1010.1 1009.3 -
11/10:00am 34.2 30.8 -0.4 11 17.0 NNE 7 15 4 8 1009.9 1009.1 -
11/09:00am 30.7 27.2 1.1 15 14.6 SSW 9 - 5 - - 1009.4 -

Other formats

Comma delimited format used in spreadsheet applications
http://www.bom.gov.au/fwo/IDN60801/IDN60801.95715.axf

JavaScript Object Notation format (JSON) in row-major order
http://www.bom.gov.au/fwo/IDN60801/IDN60801.95715.json

Data quality

Most of these data are generated automatically and are frequently updated. Quality checks on data are not normally performed. It is possible for incorrect values to appear. Refer to information at About Latest Weather Observations and please check the disclaimer before using these data.